sensor_id;sensor_type;location;lat;lon;timestamp;pressure;altitude;pressure_sealevel;temperature;humidity
78309;BME280;67566;42.022;21.356;2023-05-29T00:02:06;98280.81;;;16.98;71.33
78309;BME280;67566;42.022;21.356;2023-05-29T00:04:32;98274.56;;;16.94;71.18
78309;BME280;67566;42.022;21.356;2023-05-29T00:06:57;98271.03;;;16.90;71.32
78309;BME280;67566;42.022;21.356;2023-05-29T00:09:23;98280.63;;;16.91;71.00
78309;BME280;67566;42.022;21.356;2023-05-29T00:11:49;98280.28;;;16.93;71.51
78309;BME280;67566;42.022;21.356;2023-05-29T00:14:18;98282.91;;;16.89;71.34
78309;BME280;67566;42.022;21.356;2023-05-29T00:16:45;98280.63;;;16.91;71.14
78309;BME280;67566;42.022;21.356;2023-05-29T00:19:12;98277.69;;;16.80;71.67
78309;BME280;67566;42.022;21.356;2023-05-29T00:21:39;98278.75;;;16.76;71.88
78309;BME280;67566;42.022;21.356;2023-05-29T00:24:05;98291.56;;;16.67;71.93
78309;BME280;67566;42.022;21.356;2023-05-29T00:26:31;98294.25;;;16.67;72.02
78309;BME280;67566;42.022;21.356;2023-05-29T00:28:56;98287.69;;;16.64;72.08
78309;BME280;67566;42.022;21.356;2023-05-29T00:31:22;98297.66;;;16.64;71.46
78309;BME280;67566;42.022;21.356;2023-05-29T00:33:49;98288.81;;;16.63;71.87
78309;BME280;67566;42.022;21.356;2023-05-29T00:36:15;98292.97;;;16.60;72.23
78309;BME280;67566;42.022;21.356;2023-05-29T00:38:41;98290.97;;;16.57;72.70
78309;BME280;67566;42.022;21.356;2023-05-29T00:41:07;98292.91;;;16.57;71.96
78309;BME280;67566;42.022;21.356;2023-05-29T00:43:32;98295.59;;;16.57;72.71
78309;BME280;67566;42.022;21.356;2023-05-29T00:45:58;98299.03;;;16.57;72.93
78309;BME280;67566;42.022;21.356;2023-05-29T00:48:24;98296.78;;;16.59;72.41
78309;BME280;67566;42.022;21.356;2023-05-29T00:50:50;98303.81;;;16.64;72.12
78309;BME280;67566;42.022;21.356;2023-05-29T00:53:16;98302.66;;;16.65;72.45
78309;BME280;67566;42.022;21.356;2023-05-29T00:55:42;98303.47;;;16.66;72.04
78309;BME280;67566;42.022;21.356;2023-05-29T00:58:08;98306.84;;;16.63;72.08
78309;BME280;67566;42.022;21.356;2023-05-29T01:00:34;98305.19;;;16.58;72.43
78309;BME280;67566;42.022;21.356;2023-05-29T01:03:03;98305.09;;;16.54;72.64
78309;BME280;67566;42.022;21.356;2023-05-29T01:05:33;98296.53;;;16.49;72.41
78309;BME280;67566;42.022;21.356;2023-05-29T01:07:58;98298.44;;;16.48;72.68
78309;BME280;67566;42.022;21.356;2023-05-29T01:10:24;98291.41;;;16.43;72.70
78309;BME280;67566;42.022;21.356;2023-05-29T01:12:59;98288.47;;;16.33;72.89
78309;BME280;67566;42.022;21.356;2023-05-29T01:20:55;98290.09;;;16.21;73.51
78309;BME280;67566;42.022;21.356;2023-05-29T01:23:27;98297.91;;;16.27;73.10
78309;BME280;67566;42.022;21.356;2023-05-29T01:26:29;98296.44;;;16.29;73.51
78309;BME280;67566;42.022;21.356;2023-05-29T01:29:00;98294.09;;;16.28;73.22
78309;BME280;67566;42.022;21.356;2023-05-29T01:31:28;98292.19;;;16.28;73.47
78309;BME280;67566;42.022;21.356;2023-05-29T01:33:55;98295.66;;;16.29;72.88
78309;BME280;67566;42.022;21.356;2023-05-29T01:36:21;98299.47;;;16.28;73.61
78309;BME280;67566;42.022;21.356;2023-05-29T01:38:48;98300.16;;;16.24;73.13
78309;BME280;67566;42.022;21.356;2023-05-29T01:41:15;98297.81;;;16.23;73.33
78309;BME280;67566;42.022;21.356;2023-05-29T01:43:43;98298.06;;;16.18;72.49
78309;BME280;67566;42.022;21.356;2023-05-29T01:46:09;98303.59;;;16.09;73.17
78309;BME280;67566;42.022;21.356;2023-05-29T01:48:35;98294.41;;;16.10;72.57
78309;BME280;67566;42.022;21.356;2023-05-29T01:51:01;98300.13;;;16.09;73.20
78309;BME280;67566;42.022;21.356;2023-05-29T01:53:26;98299.69;;;16.07;73.54
78309;BME280;67566;42.022;21.356;2023-05-29T01:55:52;98295.06;;;15.91;73.00
78309;BME280;67566;42.022;21.356;2023-05-29T01:58:20;98283.13;;;15.89;72.89
78309;BME280;67566;42.022;21.356;2023-05-29T02:00:47;98290.38;;;15.88;73.40
78309;BME280;67566;42.022;21.356;2023-05-29T02:03:13;98286.59;;;15.89;73.93
78309;BME280;67566;42.022;21.356;2023-05-29T02:05:38;98294.28;;;15.91;73.98
78309;BME280;67566;42.022;21.356;2023-05-29T02:08:04;98286.16;;;15.87;73.91
78309;BME280;67566;42.022;21.356;2023-05-29T02:10:30;98287.69;;;15.88;73.94
78309;BME280;67566;42.022;21.356;2023-05-29T02:12:57;98290.28;;;15.84;74.07
78309;BME280;67566;42.022;21.356;2023-05-29T02:15:23;98285.72;;;15.85;74.31
78309;BME280;67566;42.022;21.356;2023-05-29T02:17:48;98295.66;;;15.84;74.51
78309;BME280;67566;42.022;21.356;2023-05-29T02:20:15;98292.19;;;15.84;73.54
78309;BME280;67566;42.022;21.356;2023-05-29T02:22:41;98293.41;;;15.86;74.10
78309;BME280;67566;42.022;21.356;2023-05-29T02:25:07;98297.31;;;15.89;74.42
78309;BME280;67566;42.022;21.356;2023-05-29T02:27:33;98298.00;;;15.86;73.75
78309;BME280;67566;42.022;21.356;2023-05-29T02:29:58;98297.13;;;15.82;74.02
78309;BME280;67566;42.022;21.356;2023-05-29T02:32:24;98303.53;;;15.77;73.90
78309;BME280;67566;42.022;21.356;2023-05-29T02:34:51;98302.63;;;15.73;73.74
78309;BME280;67566;42.022;21.356;2023-05-29T02:37:17;98297.59;;;15.72;73.79
78309;BME280;67566;42.022;21.356;2023-05-29T02:39:43;98298.94;;;15.65;74.30
78309;BME280;67566;42.022;21.356;2023-05-29T02:42:09;98296.41;;;15.57;74.05
78309;BME280;67566;42.022;21.356;2023-05-29T02:44:34;98295.53;;;15.53;74.66
78309;BME280;67566;42.022;21.356;2023-05-29T02:47:00;98300.69;;;15.45;74.62
78309;BME280;67566;42.022;21.356;2023-05-29T02:49:25;98305.28;;;15.45;74.48
78309;BME280;67566;42.022;21.356;2023-05-29T02:51:51;98295.56;;;15.40;74.32
78309;BME280;67566;42.022;21.356;2023-05-29T02:54:25;98296.81;;;15.43;74.79
78309;BME280;67566;42.022;21.356;2023-05-29T02:56:53;98292.97;;;15.44;74.70
78309;BME280;67566;42.022;21.356;2023-05-29T02:59:19;98289.00;;;15.38;75.06
78309;BME280;67566;42.022;21.356;2023-05-29T03:01:45;98305.09;;;15.25;75.00
78309;BME280;67566;42.022;21.356;2023-05-29T03:04:12;98302.28;;;15.22;75.31
78309;BME280;67566;42.022;21.356;2023-05-29T03:06:38;98300.09;;;15.24;74.64
78309;BME280;67566;42.022;21.356;2023-05-29T03:09:03;98305.44;;;15.24;75.14
78309;BME280;67566;42.022;21.356;2023-05-29T03:11:31;98310.91;;;15.27;74.68
78309;BME280;67566;42.022;21.356;2023-05-29T03:13:56;98315.47;;;15.27;75.24
78309;BME280;67566;42.022;21.356;2023-05-29T03:16:22;98312.34;;;15.25;75.40
78309;BME280;67566;42.022;21.356;2023-05-29T03:18:47;98314.94;;;15.21;75.21
78309;BME280;67566;42.022;21.356;2023-05-29T03:21:13;98312.91;;;15.18;75.26
78309;BME280;67566;42.022;21.356;2023-05-29T03:23:39;98319.09;;;15.19;74.80
78309;BME280;67566;42.022;21.356;2023-05-29T03:26:04;98334.28;;;15.15;74.27
78309;BME280;67566;42.022;21.356;2023-05-29T03:28:31;98335.41;;;15.14;75.45
78309;BME280;67566;42.022;21.356;2023-05-29T03:30:56;98333.81;;;15.13;75.05
78309;BME280;67566;42.022;21.356;2023-05-29T03:33:22;98336.19;;;15.14;74.98
78309;BME280;67566;42.022;21.356;2023-05-29T03:35:47;98333.81;;;15.13;75.32
78309;BME280;67566;42.022;21.356;2023-05-29T03:38:13;98346.13;;;15.14;75.56
78309;BME280;67566;42.022;21.356;2023-05-29T03:40:38;98336.50;;;15.13;75.55
78309;BME280;67566;42.022;21.356;2023-05-29T03:43:04;98332.06;;;15.17;75.55
78309;BME280;67566;42.022;21.356;2023-05-29T03:45:30;98329.91;;;15.22;75.27
78309;BME280;67566;42.022;21.356;2023-05-29T03:47:55;98334.25;;;15.27;75.01
78309;BME280;67566;42.022;21.356;2023-05-29T03:50:21;98326.56;;;15.25;75.54
78309;BME280;67566;42.022;21.356;2023-05-29T03:52:46;98332.38;;;15.27;75.02
78309;BME280;67566;42.022;21.356;2023-05-29T03:55:12;98340.63;;;15.35;75.78
78309;BME280;67566;42.022;21.356;2023-05-29T03:57:40;98348.53;;;15.43;75.73
78309;BME280;67566;42.022;21.356;2023-05-29T04:00:08;98343.72;;;15.49;74.74
78309;BME280;67566;42.022;21.356;2023-05-29T04:02:36;98345.84;;;15.56;75.55
78309;BME280;67566;42.022;21.356;2023-05-29T04:05:03;98355.09;;;15.58;75.47
78309;BME280;67566;42.022;21.356;2023-05-29T04:07:32;98349.50;;;15.63;74.86
78309;BME280;67566;42.022;21.356;2023-05-29T04:09:58;98355.75;;;15.67;75.66
78309;BME280;67566;42.022;21.356;2023-05-29T04:12:24;98353.94;;;15.72;74.97
78309;BME280;67566;42.022;21.356;2023-05-29T04:14:49;98358.44;;;15.80;74.93
78309;BME280;67566;42.022;21.356;2023-05-29T04:17:17;98354.72;;;15.84;74.22
78309;BME280;67566;42.022;21.356;2023-05-29T04:19:46;98369.22;;;15.96;74.68
78309;BME280;67566;42.022;21.356;2023-05-29T04:22:11;98363.28;;;16.02;74.09
78309;BME280;67566;42.022;21.356;2023-05-29T04:24:37;98360.88;;;16.13;73.60
78309;BME280;67566;42.022;21.356;2023-05-29T04:27:02;98359.16;;;16.21;73.67
78309;BME280;67566;42.022;21.356;2023-05-29T04:29:31;98362.91;;;16.32;73.69
78309;BME280;67566;42.022;21.356;2023-05-29T04:31:59;98360.06;;;16.41;74.07
78309;BME280;67566;42.022;21.356;2023-05-29T04:34:28;98370.31;;;16.51;72.93
78309;BME280;67566;42.022;21.356;2023-05-29T04:36:56;98366.31;;;16.61;73.04
78309;BME280;67566;42.022;21.356;2023-05-29T04:39:24;98366.25;;;16.73;73.23
78309;BME280;67566;42.022;21.356;2023-05-29T04:41:50;98371.13;;;16.84;72.48
78309;BME280;67566;42.022;21.356;2023-05-29T04:44:17;98370.97;;;16.92;72.63
78309;BME280;67566;42.022;21.356;2023-05-29T04:46:42;98369.66;;;17.02;72.39
78309;BME280;67566;42.022;21.356;2023-05-29T04:49:10;98366.88;;;17.14;71.93
78309;BME280;67566;42.022;21.356;2023-05-29T04:51:35;98371.78;;;17.28;71.91
78309;BME280;67566;42.022;21.356;2023-05-29T04:54:01;98371.69;;;17.41;71.26
78309;BME280;67566;42.022;21.356;2023-05-29T04:56:28;98377.72;;;17.53;70.43
78309;BME280;67566;42.022;21.356;2023-05-29T04:58:53;98374.81;;;17.62;70.79
78309;BME280;67566;42.022;21.356;2023-05-29T05:01:19;98374.28;;;17.72;70.68
78309;BME280;67566;42.022;21.356;2023-05-29T05:03:45;98378.03;;;17.87;70.46
78309;BME280;67566;42.022;21.356;2023-05-29T05:06:11;98369.06;;;17.99;69.25
78309;BME280;67566;42.022;21.356;2023-05-29T05:08:38;98374.28;;;18.11;69.65
78309;BME280;67566;42.022;21.356;2023-05-29T05:11:04;98384.56;;;18.25;69.22
78309;BME280;67566;42.022;21.356;2023-05-29T05:13:31;98385.19;;;18.38;69.44
78309;BME280;67566;42.022;21.356;2023-05-29T05:15:57;98398.13;;;18.52;68.91
78309;BME280;67566;42.022;21.356;2023-05-29T05:18:22;98398.00;;;18.64;68.02
78309;BME280;67566;42.022;21.356;2023-05-29T05:20:48;98398.94;;;18.76;67.97
78309;BME280;67566;42.022;21.356;2023-05-29T05:23:13;98400.28;;;18.85;67.21
78309;BME280;67566;42.022;21.356;2023-05-29T05:25:39;98411.25;;;18.96;67.19
78309;BME280;67566;42.022;21.356;2023-05-29T05:28:04;98409.38;;;19.00;65.86
78309;BME280;67566;42.022;21.356;2023-05-29T05:30:31;98408.41;;;19.12;66.20
78309;BME280;67566;42.022;21.356;2023-05-29T05:32:57;98409.72;;;19.22;65.86
78309;BME280;67566;42.022;21.356;2023-05-29T05:35:23;98407.91;;;19.30;65.70
78309;BME280;67566;42.022;21.356;2023-05-29T05:37:49;98403.69;;;19.32;64.42
78309;BME280;67566;42.022;21.356;2023-05-29T05:40:14;98411.53;;;19.41;65.13
78309;BME280;67566;42.022;21.356;2023-05-29T05:42:40;98408.63;;;19.53;64.59
78309;BME280;67566;42.022;21.356;2023-05-29T05:45:06;98401.00;;;19.59;63.42
78309;BME280;67566;42.022;21.356;2023-05-29T05:47:32;98399.94;;;19.67;62.37
78309;BME280;67566;42.022;21.356;2023-05-29T05:49:58;98398.06;;;19.71;62.83
78309;BME280;67566;42.022;21.356;2023-05-29T05:52:24;98394.41;;;19.87;62.89
78309;BME280;67566;42.022;21.356;2023-05-29T05:54:51;98401.56;;;20.02;62.09
78309;BME280;67566;42.022;21.356;2023-05-29T05:57:17;98396.66;;;20.11;62.19
78309;BME280;67566;42.022;21.356;2023-05-29T05:59:42;98400.66;;;20.25;62.51
78309;BME280;67566;42.022;21.356;2023-05-29T06:02:08;98402.34;;;20.36;62.23
78309;BME280;67566;42.022;21.356;2023-05-29T06:04:34;98395.03;;;20.41;61.37
78309;BME280;67566;42.022;21.356;2023-05-29T06:07:00;98398.59;;;20.48;60.10
78309;BME280;67566;42.022;21.356;2023-05-29T06:09:26;98393.25;;;20.55;60.85
78309;BME280;67566;42.022;21.356;2023-05-29T06:11:51;98407.19;;;20.58;59.82
78309;BME280;67566;42.022;21.356;2023-05-29T06:14:17;98410.03;;;20.72;60.62
78309;BME280;67566;42.022;21.356;2023-05-29T06:16:43;98400.88;;;20.84;59.88
78309;BME280;67566;42.022;21.356;2023-05-29T06:19:08;98407.59;;;21.01;60.12
78309;BME280;67566;42.022;21.356;2023-05-29T06:21:34;98401.91;;;21.17;59.54
78309;BME280;67566;42.022;21.356;2023-05-29T06:24:00;98404.28;;;21.22;58.20
78309;BME280;67566;42.022;21.356;2023-05-29T06:26:25;98401.66;;;21.36;59.25
78309;BME280;67566;42.022;21.356;2023-05-29T06:28:52;98398.28;;;21.50;59.37
78309;BME280;67566;42.022;21.356;2023-05-29T06:31:18;98401.00;;;21.50;58.46
78309;BME280;67566;42.022;21.356;2023-05-29T06:33:44;98402.94;;;21.49;57.17
78309;BME280;67566;42.022;21.356;2023-05-29T06:36:10;98414.09;;;21.44;56.75
78309;BME280;67566;42.022;21.356;2023-05-29T06:38:36;98403.25;;;21.44;57.62
78309;BME280;67566;42.022;21.356;2023-05-29T06:41:01;98400.66;;;21.59;57.00
78309;BME280;67566;42.022;21.356;2023-05-29T06:43:28;98403.00;;;21.60;56.45
78309;BME280;67566;42.022;21.356;2023-05-29T06:45:54;98394.91;;;21.67;56.52
78309;BME280;67566;42.022;21.356;2023-05-29T06:48:19;98397.66;;;21.82;55.99
78309;BME280;67566;42.022;21.356;2023-05-29T06:50:47;98394.59;;;21.87;56.26
78309;BME280;67566;42.022;21.356;2023-05-29T06:53:13;98395.31;;;21.77;54.63
78309;BME280;67566;42.022;21.356;2023-05-29T06:55:38;98392.94;;;21.64;54.91
78309;BME280;67566;42.022;21.356;2023-05-29T06:58:06;98394.84;;;21.53;55.56
78309;BME280;67566;42.022;21.356;2023-05-29T07:00:31;98389.50;;;21.71;55.71
78309;BME280;67566;42.022;21.356;2023-05-29T07:02:57;98393.47;;;21.92;55.49
78309;BME280;67566;42.022;21.356;2023-05-29T07:05:23;98388.44;;;21.97;55.16
78309;BME280;67566;42.022;21.356;2023-05-29T07:07:48;98402.34;;;21.88;54.48
78309;BME280;67566;42.022;21.356;2023-05-29T07:10:14;98405.81;;;21.89;54.54
78309;BME280;67566;42.022;21.356;2023-05-29T07:12:39;98399.66;;;21.92;54.09
78309;BME280;67566;42.022;21.356;2023-05-29T07:15:05;98398.94;;;22.06;54.87
78309;BME280;67566;42.022;21.356;2023-05-29T07:17:31;98392.81;;;22.27;54.89
78309;BME280;67566;42.022;21.356;2023-05-29T07:19:56;98392.84;;;22.38;53.13
78309;BME280;67566;42.022;21.356;2023-05-29T07:22:22;98393.66;;;22.49;52.82
78309;BME280;67566;42.022;21.356;2023-05-29T07:24:47;98397.16;;;22.60;52.81
78309;BME280;67566;42.022;21.356;2023-05-29T07:27:12;98390.19;;;22.70;52.91
78309;BME280;67566;42.022;21.356;2023-05-29T07:29:38;98383.59;;;22.71;53.53
78309;BME280;67566;42.022;21.356;2023-05-29T07:32:04;98386.72;;;22.80;52.59
78309;BME280;67566;42.022;21.356;2023-05-29T07:34:29;98385.91;;;22.76;51.96
78309;BME280;67566;42.022;21.356;2023-05-29T07:37:01;98386.72;;;22.73;52.92
78309;BME280;67566;42.022;21.356;2023-05-29T07:39:27;98394.84;;;22.98;52.76
78309;BME280;67566;42.022;21.356;2023-05-29T07:41:53;98392.50;;;23.26;52.08
78309;BME280;67566;42.022;21.356;2023-05-29T07:44:18;98389.78;;;23.47;51.45
78309;BME280;67566;42.022;21.356;2023-05-29T07:46:44;98390.91;;;23.64;51.20
78309;BME280;67566;42.022;21.356;2023-05-29T07:49:10;98384.66;;;23.71;49.44
78309;BME280;67566;42.022;21.356;2023-05-29T07:51:35;98387.72;;;23.80;49.38
78309;BME280;67566;42.022;21.356;2023-05-29T07:54:02;98385.38;;;23.93;49.33
78309;BME280;67566;42.022;21.356;2023-05-29T07:56:28;98390.41;;;23.98;49.60
78309;BME280;67566;42.022;21.356;2023-05-29T07:58:53;98373.78;;;23.82;49.14
78309;BME280;67566;42.022;21.356;2023-05-29T08:01:20;98375.34;;;23.68;48.34
78309;BME280;67566;42.022;21.356;2023-05-29T08:03:49;98371.09;;;23.56;48.67
78309;BME280;67566;42.022;21.356;2023-05-29T08:06:14;98381.25;;;23.42;49.16
78309;BME280;67566;42.022;21.356;2023-05-29T08:08:40;98375.03;;;23.34;48.95
78309;BME280;67566;42.022;21.356;2023-05-29T08:11:06;98365.72;;;23.42;49.61
78309;BME280;67566;42.022;21.356;2023-05-29T08:13:32;98373.41;;;23.65;49.59
78309;BME280;67566;42.022;21.356;2023-05-29T08:15:57;98372.19;;;23.84;49.54
78309;BME280;67566;42.022;21.356;2023-05-29T08:18:25;98378.31;;;24.10;48.73
78309;BME280;67566;42.022;21.356;2023-05-29T08:20:51;98376.63;;;24.34;49.23
78309;BME280;67566;42.022;21.356;2023-05-29T08:23:18;98373.81;;;24.48;48.48
78309;BME280;67566;42.022;21.356;2023-05-29T08:25:44;98366.31;;;24.63;48.11
78309;BME280;67566;42.022;21.356;2023-05-29T08:28:09;98374.75;;;24.83;47.80
78309;BME280;67566;42.022;21.356;2023-05-29T08:30:35;98369.06;;;25.09;47.59
78309;BME280;67566;42.022;21.356;2023-05-29T08:33:00;98374.81;;;25.18;47.19
78309;BME280;67566;42.022;21.356;2023-05-29T08:35:26;98364.84;;;25.00;46.17
78309;BME280;67566;42.022;21.356;2023-05-29T08:37:51;98363.56;;;24.67;46.16
78309;BME280;67566;42.022;21.356;2023-05-29T08:40:17;98367.88;;;24.64;47.98
78309;BME280;67566;42.022;21.356;2023-05-29T08:42:47;98364.31;;;24.75;47.07
78309;BME280;67566;42.022;21.356;2023-05-29T08:45:13;98357.50;;;24.97;46.49
78309;BME280;67566;42.022;21.356;2023-05-29T08:47:40;98355.69;;;25.21;47.03
78309;BME280;67566;42.022;21.356;2023-05-29T08:50:07;98356.50;;;25.22;45.99
78309;BME280;67566;42.022;21.356;2023-05-29T08:52:34;98352.25;;;25.17;47.40
78309;BME280;67566;42.022;21.356;2023-05-29T08:55:04;98356.47;;;25.25;46.61
78309;BME280;67566;42.022;21.356;2023-05-29T08:57:30;98355.88;;;25.45;46.75
78309;BME280;67566;42.022;21.356;2023-05-29T08:59:56;98363.16;;;25.55;46.56
78309;BME280;67566;42.022;21.356;2023-05-29T09:02:22;98351.34;;;25.31;45.98
78309;BME280;67566;42.022;21.356;2023-05-29T09:04:48;98349.66;;;25.44;45.65
78309;BME280;67566;42.022;21.356;2023-05-29T09:07:21;98352.16;;;25.28;46.84
78309;BME280;67566;42.022;21.356;2023-05-29T09:09:48;98358.41;;;25.21;45.19
78309;BME280;67566;42.022;21.356;2023-05-29T09:12:16;98345.59;;;25.25;45.23
78309;BME280;67566;42.022;21.356;2023-05-29T09:14:45;98350.00;;;25.50;45.33
78309;BME280;67566;42.022;21.356;2023-05-29T09:17:11;98339.59;;;25.72;45.62
78309;BME280;67566;42.022;21.356;2023-05-29T09:19:38;98344.06;;;25.90;45.21
78309;BME280;67566;42.022;21.356;2023-05-29T09:22:10;98340.06;;;25.98;45.44
78309;BME280;67566;42.022;21.356;2023-05-29T09:24:39;98328.94;;;26.16;44.99
78309;BME280;67566;42.022;21.356;2023-05-29T09:27:05;98327.50;;;26.31;44.86
78309;BME280;67566;42.022;21.356;2023-05-29T09:29:40;98325.06;;;26.41;44.01
78309;BME280;67566;42.022;21.356;2023-05-29T09:32:18;98324.19;;;26.20;43.00
78309;BME280;67566;42.022;21.356;2023-05-29T09:34:45;98312.69;;;26.32;43.51
78309;BME280;67566;42.022;21.356;2023-05-29T09:37:11;98315.25;;;26.43;43.35
78309;BME280;67566;42.022;21.356;2023-05-29T09:39:50;98313.59;;;26.49;42.56
78309;BME280;67566;42.022;21.356;2023-05-29T09:42:18;98310.31;;;26.62;43.02
78309;BME280;67566;42.022;21.356;2023-05-29T09:44:54;98311.84;;;26.86;43.26
78309;BME280;67566;42.022;21.356;2023-05-29T09:47:21;98307.00;;;26.94;41.59
78309;BME280;67566;42.022;21.356;2023-05-29T09:49:47;98318.00;;;26.90;41.86
78309;BME280;67566;42.022;21.356;2023-05-29T09:52:14;98306.66;;;26.45;41.19
78309;BME280;67566;42.022;21.356;2023-05-29T09:54:43;98307.66;;;26.54;40.91
78309;BME280;67566;42.022;21.356;2023-05-29T09:57:13;98300.19;;;26.82;42.39
78309;BME280;67566;42.022;21.356;2023-05-29T09:59:45;98301.41;;;26.81;41.92
78309;BME280;67566;42.022;21.356;2023-05-29T10:02:12;98298.41;;;26.48;41.56
78309;BME280;67566;42.022;21.356;2023-05-29T10:04:39;98298.19;;;26.63;42.64
78309;BME280;67566;42.022;21.356;2023-05-29T10:07:27;98294.03;;;26.54;40.42
78309;BME280;67566;42.022;21.356;2023-05-29T10:10:00;98284.22;;;26.57;39.42
78309;BME280;67566;42.022;21.356;2023-05-29T10:12:27;98298.34;;;26.52;40.51
78309;BME280;67566;42.022;21.356;2023-05-29T10:14:57;98280.56;;;26.67;41.80
78309;BME280;67566;42.022;21.356;2023-05-29T10:17:28;98283.91;;;26.28;41.45
78309;BME280;67566;42.022;21.356;2023-05-29T10:19:57;98272.66;;;25.98;42.70
78309;BME280;67566;42.022;21.356;2023-05-29T10:22:27;98269.44;;;26.31;42.69
78309;BME280;67566;42.022;21.356;2023-05-29T10:24:53;98270.75;;;26.70;41.23
78309;BME280;67566;42.022;21.356;2023-05-29T10:27:20;98271.00;;;26.79;40.32
78309;BME280;67566;42.022;21.356;2023-05-29T10:36:13;98269.69;;;27.07;39.75
78309;BME280;67566;42.022;21.356;2023-05-29T10:38:44;98268.13;;;27.06;38.97
78309;BME280;67566;42.022;21.356;2023-05-29T10:43:59;98273.50;;;27.34;39.15
78309;BME280;67566;42.022;21.356;2023-05-29T10:49:17;98255.31;;;27.63;38.00
78309;BME280;67566;42.022;21.356;2023-05-29T10:51:42;98253.53;;;27.73;38.39
78309;BME280;67566;42.022;21.356;2023-05-29T10:54:09;98260.72;;;27.83;37.98
78309;BME280;67566;42.022;21.356;2023-05-29T10:56:35;98254.97;;;27.98;38.42
78309;BME280;67566;42.022;21.356;2023-05-29T10:59:01;98243.94;;;28.18;37.45
78309;BME280;67566;42.022;21.356;2023-05-29T11:01:28;98248.38;;;28.28;38.06
78309;BME280;67566;42.022;21.356;2023-05-29T11:06:51;98238.09;;;28.65;37.68
78309;BME280;67566;42.022;21.356;2023-05-29T11:15:09;98232.03;;;28.87;37.05
78309;BME280;67566;42.022;21.356;2023-05-29T11:20:09;98225.44;;;29.13;37.04
78309;BME280;67566;42.022;21.356;2023-05-29T11:25:25;98217.28;;;28.97;35.86
78309;BME280;67566;42.022;21.356;2023-05-29T11:27:51;98221.53;;;28.85;35.57
78309;BME280;67566;42.022;21.356;2023-05-29T11:30:18;98216.88;;;28.53;36.69
78309;BME280;67566;42.022;21.356;2023-05-29T11:32:45;98219.78;;;28.46;35.86
78309;BME280;67566;42.022;21.356;2023-05-29T11:35:12;98214.22;;;28.49;35.40
78309;BME280;67566;42.022;21.356;2023-05-29T11:37:42;98208.16;;;28.58;35.57
78309;BME280;67566;42.022;21.356;2023-05-29T11:40:11;98205.88;;;28.69;35.68
78309;BME280;67566;42.022;21.356;2023-05-29T11:42:45;98198.53;;;28.50;35.04
78309;BME280;67566;42.022;21.356;2023-05-29T11:48:01;98193.69;;;28.57;35.57
78309;BME280;67566;42.022;21.356;2023-05-29T11:50:28;98192.25;;;28.82;37.03
78309;BME280;67566;42.022;21.356;2023-05-29T11:52:55;98191.44;;;29.11;36.92
78309;BME280;67566;42.022;21.356;2023-05-29T11:55:22;98184.16;;;29.33;36.00
78309;BME280;67566;42.022;21.356;2023-05-29T11:57:55;98189.56;;;29.50;36.24
78309;BME280;67566;42.022;21.356;2023-05-29T12:00:21;98183.19;;;29.66;34.58
78309;BME280;67566;42.022;21.356;2023-05-29T12:02:47;98175.25;;;29.16;34.84
78309;BME280;67566;42.022;21.356;2023-05-29T12:05:15;98177.78;;;29.24;34.62
78309;BME280;67566;42.022;21.356;2023-05-29T12:10:18;98171.97;;;29.47;34.92
78309;BME280;67566;42.022;21.356;2023-05-29T12:12:58;98172.31;;;29.62;35.16
78309;BME280;67566;42.022;21.356;2023-05-29T12:15:25;98161.75;;;29.86;34.51
78309;BME280;67566;42.022;21.356;2023-05-29T12:17:53;98155.59;;;30.08;34.56
78309;BME280;67566;42.022;21.356;2023-05-29T12:20:22;98156.78;;;30.20;34.09
78309;BME280;67566;42.022;21.356;2023-05-29T12:22:48;98156.06;;;30.41;33.86
78309;BME280;67566;42.022;21.356;2023-05-29T12:25:19;98156.66;;;30.58;33.62
78309;BME280;67566;42.022;21.356;2023-05-29T12:27:47;98153.16;;;30.10;34.07
78309;BME280;67566;42.022;21.356;2023-05-29T12:30:19;98163.09;;;29.43;34.61
78309;BME280;67566;42.022;21.356;2023-05-29T12:32:47;98159.47;;;28.78;35.84
78309;BME280;67566;42.022;21.356;2023-05-29T12:37:46;98142.66;;;27.85;36.26
78309;BME280;67566;42.022;21.356;2023-05-29T12:42:41;98143.25;;;27.60;39.00
78309;BME280;67566;42.022;21.356;2023-05-29T12:45:08;98132.44;;;27.36;38.08
78309;BME280;67566;42.022;21.356;2023-05-29T12:47:35;98139.78;;;27.03;39.25
78309;BME280;67566;42.022;21.356;2023-05-29T12:53:02;98129.56;;;27.43;38.44
78309;BME280;67566;42.022;21.356;2023-05-29T12:55:29;98133.66;;;27.52;38.04
78309;BME280;67566;42.022;21.356;2023-05-29T12:57:55;98125.81;;;27.86;36.81
78309;BME280;67566;42.022;21.356;2023-05-29T13:00:22;98127.69;;;28.06;37.67
78309;BME280;67566;42.022;21.356;2023-05-29T13:02:48;98124.38;;;27.82;38.49
78309;BME280;67566;42.022;21.356;2023-05-29T13:05:15;98144.59;;;27.35;38.37
78309;BME280;67566;42.022;21.356;2023-05-29T13:07:46;98128.28;;;27.11;39.33
78309;BME280;67566;42.022;21.356;2023-05-29T13:10:12;98125.81;;;27.17;39.25
78309;BME280;67566;42.022;21.356;2023-05-29T13:12:38;98119.16;;;27.38;38.83
78309;BME280;67566;42.022;21.356;2023-05-29T13:15:03;98125.47;;;27.52;37.01
78309;BME280;67566;42.022;21.356;2023-05-29T13:17:29;98123.94;;;27.67;37.09
78309;BME280;67566;42.022;21.356;2023-05-29T13:19:55;98130.28;;;27.97;38.47
78309;BME280;67566;42.022;21.356;2023-05-29T13:22:20;98137.88;;;28.05;37.27
78309;BME280;67566;42.022;21.356;2023-05-29T13:24:46;98142.88;;;27.94;36.47
78309;BME280;67566;42.022;21.356;2023-05-29T13:27:11;98145.94;;;27.96;35.92
78309;BME280;67566;42.022;21.356;2023-05-29T13:29:39;98138.25;;;27.91;34.39
78309;BME280;67566;42.022;21.356;2023-05-29T13:32:06;98147.47;;;27.97;35.54
78309;BME280;67566;42.022;21.356;2023-05-29T13:34:32;98136.88;;;27.99;37.47